• Join FlightAware (Why Join?)
  • Login
  • US Flag 
02:56PM EDT


 

Airport Tracker/Info


-or-


 

Live Flight TrackerFlight Track Log ✈ N566UA ✈ 27-Apr-2013 ✈ KIAH - KSFO

Flight Track Log - Related Links

Times and Time Zones

All times are in EDT time to prevent confusion due to time zone crossing. See the N566UA flight status page for this flight to view local times or setup timezone preferences in your user account.

Time Position Orientation Groundspeed Altitude Reporting Facility
EDT Latitude Longitude Course Direction KTS MPH feet Rate Location/Type
05:20PM 29.9617 -95.3436 334° Northwest 181 208 700  Level Houston Center
05:21PM 29.9386 -95.3897 240° Southwest 250 288 2,900 2,100 Climbing Houston Center
05:22PM 29.9597 -95.4142 315° West 238 274 3,700 1,740 Climbing Houston Center
05:22PM 29.9933 -95.4144 360° North 280 322 4,500 2,880 Climbing Houston Center
05:23PM 30.2809 -95.5116 334° Northwest  Level FlightAware Approximate
05:23PM 30.0247 -95.3839 40° Northeast 271 312 6,700  Level Houston Center
05:23PM 30.0486 -95.3525 49° Northeast 281 323 8,400 3,540 Climbing Houston Center
05:24PM 30.3818 -95.5677 334° Northwest  Level FlightAware Approximate
05:24PM 30.0911 -95.3414 13° North 292 336 10,400  Level Houston Center
05:25PM 30.4828 -95.6238 334° Northwest  Level FlightAware Approximate
05:25PM 30.1747 -95.3336 North 298 343 14,000  Level Houston Center
05:26PM 30.5844 -95.6783 334° Northwest  Level FlightAware Approximate
05:26PM 30.2778 -95.3144 North 312 359 17,400  Level Houston Center
05:27PM 30.3731 -95.3344 350° North 349 402 19,000 1,980 Climbing Houston Center
05:28PM 30.4522 -95.4003 324° Northwest 367 422 21,500 1,920 Climbing Houston Center
05:29PM 30.5397 -95.4744 324° Northwest 373 429 23,000 1,260 Climbing Houston Center
05:30PM 30.6447 -95.5214 339° North 414 476 24,200 1,680 Climbing Houston Center
05:31PM 30.7828 -95.4806 14° North 449 517 26,500 1,800 Climbing Houston Center
05:32PM 30.9058 -95.4481 13° North 454 522 28,000 1,380 Climbing Houston Center
05:33PM 31.0289 -95.4717 351° North 451 519 29,400 1,200 Climbing Houston Center
05:34PM 31.1406 -95.5325 335° Northwest 439 505 30,600 1,260 Climbing Houston Center
05:35PM 31.2439 -95.6097 327° Northwest 440 506 32,000 1,440 Climbing Houston Center
05:36PM 31.3403 -95.6894 325° Northwest 429 494 33,600 1,440 Climbing Houston Center
05:37PM 31.4369 -95.7672 326° Northwest 421 484 35,000 1,080 Climbing Houston Center
05:38PM 31.5567 -95.8628 326° Northwest 412 474 36,000 420 Climbing Fort Worth Center
05:39PM 31.6514 -95.9417 325° Northwest 412 474 36,000  Level Fort Worth Center
05:40PM 31.7464 -96.0158 326° Northwest 417 480 36,000  Level Fort Worth Center
05:41PM 31.8433 -96.0978 324° Northwest 426 490 36,000  Level Fort Worth Center
05:42PM 31.9422 -96.1794 325° Northwest 426 490 36,000  Level Fort Worth Center
05:43PM 32.0283 -96.2469 326° Northwest 426 490 36,000  Level Fort Worth Center
05:44PM 32.1336 -96.3364 324° Northwest 426 490 36,000  Level Fort Worth Center
05:45PM 32.2242 -96.4236 321° Northwest 431 496 36,000  Level Fort Worth Center
05:46PM 32.3083 -96.5186 316° Northwest 426 490 36,000  Level Fort Worth Center
05:47PM 32.3925 -96.6114 317° Northwest 413 475 36,000  Level Fort Worth Center
05:48PM 32.4744 -96.7067 316° Northwest 408 470 36,000  Level Fort Worth Center
05:49PM 32.5583 -96.8022 316° Northwest 408 470 36,000  Level Fort Worth Center
05:50PM 32.6422 -96.8953 317° Northwest 408 470 36,000  Level Fort Worth Center
05:51PM 32.7242 -96.9911 315° West 408 470 36,000  Level Fort Worth Center
05:52PM 32.7975 -97.0772 315° West 408 470 36,000  Level Fort Worth Center
05:53PM 32.8917 -97.1783 318° Northwest 408 470 36,000  Level Fort Worth Center
05:54PM 32.9628 -97.2697 313° West 408 470 36,000  Level Fort Worth Center
05:55PM 33.0525 -97.3886 312° West 425 489 36,000  Level Fort Worth Center
05:56PM 33.1319 -97.4878 314° West 425 489 36,000  Level Fort Worth Center
05:57PM 33.2111 -97.5872 314° West 413 475 36,000  Level Fort Worth Center
05:58PM 33.2881 -97.6867 313° West 418 481 36,000  Level Fort Worth Center
05:59PM 33.3692 -97.7889 314° West 418 481 36,000  Level Fort Worth Center
06:00PM 33.4483 -97.8914 313° West 418 481 36,000  Level Fort Worth Center
06:01PM 33.5189 -97.9842 312° West 423 487 36,000  Level Fort Worth Center
06:02PM 33.5997 -98.0892 313° West 423 487 36,000  Level Fort Worth Center
06:03PM 33.6806 -98.1922 313° West 423 487 36,000  Level Fort Worth Center
06:04PM 33.7611 -98.2931 314° West 423 487 36,000  Level Fort Worth Center
06:05PM 33.8397 -98.4011 311° West 423 487 36,000  Level Fort Worth Center
06:06PM 33.9181 -98.5022 313° West 418 481 36,000  Level Fort Worth Center
06:07PM 34.0028 -98.6186 311° West 418 481 36,000  Level Fort Worth Center
06:08PM 34.0556 -98.7422 297° West 418 481 36,000  Level Fort Worth Center
06:09PM 34.0961 -98.8556 293° West 407 468 36,000  Level Fort Worth Center
06:10PM 34.1467 -98.9794 296° West 412 474 36,000  Level Fort Worth Center
06:11PM 34.2075 -99.1186 298° West 412 474 36,000  Level Fort Worth Center
06:12PM 34.2558 -99.2378 296° West 407 468 36,000  Level Fort Worth Center
06:13PM 34.3103 -99.3644 298° West 407 468 36,000  Level Fort Worth Center
06:14PM 34.3606 -99.4939 295° West 407 468 36,000  Level Fort Worth Center
06:15PM 34.4125 -99.6186 297° West 413 475 36,000  Level Fort Worth Center
06:16PM 34.4667 -99.7483 297° West 413 475 36,000  Level Fort Worth Center
06:19PM 34.5875 -100.0506 296° West 423 487 36,000  Level Albuquerque Center
06:20PM 34.6403 -100.1781 297° West 422 486 36,000  Level Albuquerque Center
06:21PM 34.6919 -100.3075 296° West 422 486 36,000  Level Albuquerque Center
06:22PM 34.7447 -100.4392 296° West 425 489 36,000  Level Albuquerque Center
06:23PM 34.7972 -100.5678 296° West 426 490 36,000  Level Albuquerque Center
06:24PM 34.8467 -100.6983 295° West 426 490 36,000  Level Albuquerque Center
06:25PM 34.8983 -100.8289 296° West 428 493 36,000  Level Albuquerque Center
06:26PM 34.9511 -100.9611 296° West 431 496 36,000  Level Albuquerque Center
06:27PM 35.0017 -101.0939 295° West 433 498 36,000  Level Albuquerque Center
06:28PM 35.0642 -101.2544 295° West 437 503 36,000  Level Albuquerque Center
06:29PM 35.1081 -101.3667 296° West 437 503 36,000  Level Albuquerque Center
06:30PM 35.1719 -101.5294 296° West 441 507 36,000  Level Albuquerque Center
06:31PM 35.2247 -101.6681 295° West 442 509 36,000  Level Albuquerque Center
06:32PM 35.2681 -101.8081 291° West 439 505 36,000  Level Albuquerque Center
06:33PM 35.3061 -101.9525 288° West 441 507 36,000  Level Albuquerque Center
06:34PM 35.3394 -102.0967 286° West 441 507 36,000  Level Albuquerque Center
06:35PM 35.3775 -102.2392 288° West 441 507 36,000  Level Albuquerque Center
06:36PM 35.4142 -102.3822 287° West 441 507 36,000  Level Albuquerque Center
06:37PM 35.4511 -102.5272 287° West 445 512 36,000  Level Albuquerque Center
06:38PM 35.4906 -102.6761 288° West 444 511 36,000  Level Albuquerque Center
06:39PM 35.5283 -102.8233 288° West 448 516 36,000  Level Albuquerque Center
06:40PM 35.5644 -102.9706 287° West 448 516 36,000  Level Albuquerque Center
06:41PM 35.6033 -103.1211 288° West 457 526 36,000  Level Albuquerque Center
06:42PM 35.6469 -103.2936 287° West 453 521 36,000  Level Albuquerque Center
06:43PM 35.6847 -103.4436 287° West 456 525 36,000  Level Albuquerque Center
06:44PM 35.7239 -103.5939 288° West 458 527 36,000  Level Albuquerque Center
06:45PM 35.7606 -103.7442 287° West 458 527 36,000  Level Albuquerque Center
06:46PM 35.7972 -103.8969 287° West 462 532 36,000  Level Albuquerque Center
06:47PM 35.8333 -104.0481 286° West 461 531 36,000  Level Albuquerque Center
06:48PM 35.8700 -104.2000 287° West 461 531 36,000  Level Albuquerque Center
06:49PM 35.9067 -104.3514 287° West 461 531 36,000  Level Albuquerque Center
06:50PM 35.9436 -104.5042 287° West 462 532 36,000  Level Albuquerque Center
06:51PM 35.9806 -104.6564 287° West 462 532 36,000  Level Albuquerque Center
06:52PM 36.0236 -104.8367 287° West 465 535 36,000  Level Albuquerque Center
06:53PM 36.0583 -104.9928 285° West 468 539 36,000  Level Albuquerque Center
06:54PM 36.0950 -105.1469 286° West 466 536 36,000  Level Albuquerque Center
06:55PM 36.1300 -105.3025 286° West 466 536 36,000  Level Albuquerque Center
06:56PM 36.1667 -105.4581 286° West 467 537 36,000  Level Albuquerque Center
06:57PM 36.2031 -105.6153 286° West 467 537 36,000  Level Albuquerque Center
06:58PM 36.2386 -105.7692 286° West 467 537 36,000  Level Albuquerque Center
07:00PM 36.2742 -105.9239 286° West 468 539 36,000  Level Albuquerque Center
07:01PM 36.3092 -106.0786 286° West 469 540 36,000  Level Albuquerque Center
07:02PM 36.3497 -106.2533 286° West 466 536 36,000  Level Albuquerque Center
07:03PM 36.3819 -106.4011 285° West 466 536 36,000  Level Albuquerque Center
07:04PM 36.4156 -106.5483 286° West 464 534 36,000  Level Albuquerque Center
07:05PM 36.4422 -106.6714 285° West 467 537 36,000  Level Denver Center
07:06PM 36.4847 -106.8675 285° West 462 532 36,000  Level Denver Center
07:07PM 36.5172 -107.0153 285° West 463 533 36,000  Level Denver Center
07:08PM 36.5544 -107.1867 285° West 461 531 36,000  Level Denver Center
07:09PM 36.5858 -107.3361 285° West 466 536 36,000  Level Denver Center
07:10PM 36.6239 -107.5078 285° West 462 532 36,000  Level Denver Center
07:11PM 36.6553 -107.6567 285° West 462 532 36,000  Level Denver Center
07:12PM 36.6675 -107.8089 276° West 464 534 36,000  Level Denver Center
07:13PM 36.6839 -108.0133 276° West 467 537 36,000  Level Denver Center
07:14PM 36.7017 -108.1903 277° West 464 534 36,000  Level Denver Center
07:15PM 36.7400 -108.3347 288° West 460 529 36,000  Level Denver Center
07:16PM 36.7800 -108.4803 289° West 462 532 36,000  Level Denver Center
07:17PM 36.8261 -108.6467 289° West 457 526 36,000  Level Denver Center
07:18PM 36.8661 -108.7911 289° West 461 531 36,000  Level Denver Center
07:19PM 36.9117 -108.9597 289° West 461 531 36,000  Level Denver Center
07:20PM 36.9581 -109.1250 289° West 455 524 36,000  Level Denver Center
07:21PM 37.0019 -109.2939 288° West 457 526 36,000  Level Denver Center
07:22PM 37.0414 -109.4353 289° West 453 521 36,000  Level Denver Center
07:23PM 37.0858 -109.6017 289° West 452 520 36,000  Level Denver Center
07:24PM 37.1231 -109.7431 288° West 450 518 36,000  Level Denver Center
07:25PM 37.1542 -109.8614 288° West 448 516 36,000  Level Denver Center
07:27PM 37.2050 -110.0525 289° West 454 522 36,000  Level Denver Center
07:28PM 37.2486 -110.2169 288° West 453 521 36,000  Level Denver Center
07:29PM 37.2878 -110.3683 288° West 457 526 36,000  Level Denver Center
07:30PM 37.3275 -110.5214 288° West 462 532 36,000  Level Denver Center
07:31PM 37.3658 -110.6725 288° West 457 526 36,000  Level Denver Center
07:32PM 37.4061 -110.8261 288° West 462 532 36,000  Level Denver Center
07:33PM 37.4439 -110.9733 288° West 449 517 36,000  Level Denver Center
07:34PM 37.4803 -111.1192 287° West 441 507 36,000  Level Denver Center
07:35PM 37.5172 -111.2686 287° West 444 511 36,000  Level Denver Center
07:36PM 37.5617 -111.4533 287° West 457 526 36,000  Level Denver Center
07:37PM 37.6011 -111.6092 288° West 463 533 36,000  Level Denver Center
07:38PM 37.6250 -111.7044 288° West 469 540 36,000  Level Salt Lake Center
07:39PM 37.6717 -111.8928 287° West 472 543 36,000  Level Salt Lake Center
07:40PM 37.7100 -112.0492 287° West 470 541 36,000  Level Salt Lake Center
07:41PM 37.7478 -112.2067 287° West 471 542 36,000  Level Salt Lake Center
07:42PM 37.7864 -112.3642 287° West 472 543 36,000  Level Salt Lake Center
07:43PM 37.8236 -112.5228 287° West 475 547 36,000  Level Salt Lake Center
07:44PM 37.8614 -112.6817 287° West 477 549 36,000  Level Salt Lake Center
07:45PM 37.8992 -112.8394 287° West 477 549 36,000  Level Salt Lake Center
07:46PM 37.9425 -113.0294 286° West 476 548 36,000  Level Salt Lake Center
07:47PM 37.9792 -113.1886 286° West 476 548 36,000  Level Salt Lake Center
07:48PM 38.0153 -113.3475 286° West 473 544 36,000  Level Salt Lake Center
07:49PM 38.0511 -113.5064 286° West 472 543 36,000  Level Salt Lake Center
07:50PM 38.0869 -113.6658 286° West 472 543 36,000  Level Salt Lake Center
07:51PM 38.1228 -113.8258 286° West 473 544 36,000  Level Salt Lake Center
07:52PM 38.1536 -113.9856 284° West 471 542 36,000  Level Salt Lake Center
07:53PM 38.1475 -114.1558 267° West 478 550 36,000  Level Salt Lake Center
07:54PM 38.1408 -114.3247 267° West 481 554 36,000  Level Salt Lake Center
07:55PM 38.1367 -114.5267 269° West 480 552 36,000  Level Salt Lake Center
07:56PM 38.1331 -114.6942 268° West 479 551 36,000  Level Salt Lake Center
07:57PM 38.1286 -114.8639 268° West 480 552 36,000  Level Salt Lake Center
07:58PM 38.1231 -115.0322 268° West 480 552 36,000  Level Salt Lake Center
07:59PM 38.1172 -115.2019 268° West 481 554 36,000  Level Salt Lake Center
08:00PM 38.1111 -115.3753 267° West 484 557 36,000  Level Salt Lake Center
08:01PM 38.1033 -115.5453 267° West 484 557 36,000  Level Salt Lake Center
08:02PM 38.0964 -115.7147 267° West 482 555 36,000  Level Salt Lake Center
08:03PM 38.0906 -115.8842 268° West 481 554 36,000  Level Salt Lake Center
08:04PM 38.0864 -116.0542 268° West 481 554 36,000  Level Salt Lake Center
08:05PM 38.0786 -116.2228 267° West 480 552 36,000  Level Salt Lake Center
08:06PM 38.0714 -116.3922 267° West 481 554 36,000  Level Salt Lake Center
08:07PM 38.0622 -116.5950 267° West 479 551 36,000  Level Salt Lake Center
08:08PM 38.0544 -116.7644 267° West 480 552 36,000  Level Salt Lake Center
08:09PM 38.0467 -116.9347 267° West 481 554 36,000  Level Salt Lake Center
08:10PM 38.0381 -117.1058 266° West 479 551 36,000  Level Salt Lake Center
08:11PM 38.0283 -117.2803 266° West 479 551 36,000  Level Oakland Center
08:12PM 38.0194 -117.4519 266° West 481 554 36,000  Level Oakland Center
08:13PM 38.0108 -117.6200 266° West 477 549 36,000  Level Oakland Center
08:14PM 38.0008 -117.7858 266° West 473 544 36,000  Level Oakland Center
08:15PM 37.9839 -117.9497 263° West 471 542 36,000  Level Oakland Center
08:16PM 37.9658 -118.1131 262° West 468 539 36,000  Level Oakland Center
08:17PM 37.9483 -118.2761 262° West 467 537 36,000  Level Oakland Center
08:18PM 37.9297 -118.4389 262° West 467 537 36,000  Level Oakland Center
08:19PM 37.9117 -118.6011 262° West 466 536 36,000  Level Oakland Center
08:20PM 37.8925 -118.7631 262° West 465 535 36,000  Level Oakland Center
08:21PM 37.8772 -118.9253 263° West 463 533 36,000  Level Oakland Center
08:22PM 37.8581 -119.1019 262° West 463 533 36,000  Level Oakland Center
08:23PM 37.8381 -119.2633 261° West 464 534 36,000  Level Oakland Center
08:24PM 37.8203 -119.4239 262° West 463 533 36,000  Level Oakland Center
08:25PM 37.8000 -119.5844 261° West 462 532 36,000  Level Oakland Center
08:26PM 37.7811 -119.7450 262° West 462 532 36,000 -240 Level Oakland Center
08:27PM 37.7617 -119.9064 261° West 463 533 35,600 -840 Descending Oakland Center
08:28PM 37.7414 -120.0681 261° West 463 533 34,300 -1,740 Descending Oakland Center
08:29PM 37.7208 -120.2325 261° West 470 541 32,100 -2,040 Descending Oakland Center
08:31PM 37.6994 -120.3981 261° West 477 549 30,200 -2,100 Descending Oakland Center
08:32PM 37.6792 -120.5575 261° West 463 533 27,900 -2,280 Descending Oakland Center
08:33PM 37.6608 -120.7103 261° West 442 509 25,600 -2,640 Descending Oakland Center
08:33PM 37.6333 -120.8667 258° West 433 498 23,000 -2,940 Descending Northern Cal TRACON
08:34PM 37.6167 -121.0000 261° West 423 487 20,500 -2,760 Descending Northern Cal TRACON
08:35PM 37.6000 -121.1500 262° West 392 451 17,500 -3,000 Descending Northern Cal TRACON
08:36PM 37.5833 -121.2667 260° West 373 429 14,600 -3,000 Descending Northern Cal TRACON
08:37PM 37.5667 -121.4000 261° West 360 414 11,500 -1,800 Descending Northern Cal TRACON
08:38PM 37.5500 -121.5167 260° West 350 403 10,900 -300 Descending Northern Cal TRACON
08:39PM 37.5333 -121.6333 260° West 315 362 10,900 -720 Level Northern Cal TRACON
08:40PM 37.5167 -121.7333 258° West 291 335 9,500 -1,260 Descending Northern Cal TRACON
08:41PM 37.5000 -121.8167 256° West 280 322 8,600 -840 Descending Northern Cal TRACON
08:42PM 37.4833 -121.9000 256° West 276 318 8,000 -720 Descending Northern Cal TRACON
08:43PM 37.5000 -122.0000 282° West 264 304 7,200 -1,080 Descending Northern Cal TRACON
08:44PM 37.5333 -122.0667 302° West 221 254 5,900 -1,380 Descending Northern Cal TRACON
08:45PM 37.5500 -122.1333 288° West 217 250 4,500 -1,320 Descending Northern Cal TRACON
08:46PM 37.5564 -122.1689 283° West 215 247 4,000 -1,500 Descending Oakland Center
08:47PM 37.5725 -122.2275 289° West 192 221 2,300 -1,380 Descending Oakland Center
08:48PM 37.5836 -122.2844 284° West 179 206 1,300 -840 Descending Oakland Center
08:49PM 37.5964 -122.3267 291° West 150 173 600 -720 Descending Oakland Center